Time;durP1;ratioP1;P1;durP2;ratioP2;P2;SDS_P1;SDS_P2;PMS_P1;PMS_P2;Temp;Humidity;BMP_temperature;BMP_pressure;BME280_temperature;BME280_humidity;BME280_pressure;Samples;Min_cycle;Max_cycle;Signal;HPM_P1;HPM_P2
2020/12/22 00:02:03;;;;;;;41.92;16.83;;;179.80;1817.60;;;;;;5056578;28;20021;-72
2020/12/22 00:04:29;;;;;;;33.22;17.95;;;180.00;1868.80;;;;;;5056274;28;20054;-72
2020/12/22 00:06:58;;;;;;;31.33;16.55;;;180.10;1792.00;;;;;;5056547;28;20374;-71
2020/12/22 00:09:24;;;;;;;29.65;17.83;;;180.10;1792.00;;;;;;5055824;28;20501;-71
2020/12/22 00:11:50;;;;;;;42.53;24.23;;;180.10;1792.00;;;;;;5071713;28;20032;-71
2020/12/22 00:14:16;;;;;;;66.05;31.88;;;180.10;1766.40;;;;;;5056568;28;20044;-71
2020/12/22 00:16:42;;;;;;;96.40;41.65;;;180.00;1766.40;;;;;;5056330;28;20075;-76
2020/12/22 00:19:08;;;;;;;95.32;41.88;;;180.00;1766.40;;;;;;5056156;28;20037;-70
2020/12/22 00:21:35;;;;;;;97.85;44.25;;;180.00;1766.40;;;;;;5055725;28;20033;-70
2020/12/22 00:24:01;;;;;;;89.05;41.15;;;180.00;1766.40;;;;;;5055954;28;20032;-70
2020/12/22 00:26:30;;;;;;;85.80;42.08;;;180.00;1766.40;;;;;;5056145;28;20037;-70
2020/12/22 00:28:56;;;;;;;69.13;34.30;;;179.90;1792.00;;;;;;5056029;28;20032;-76
2020/12/22 00:31:22;;;;;;;58.20;30.77;;;180.00;1792.00;;;;;;5054220;28;20398;-71
2020/12/22 00:33:48;;;;;;;44.38;23.95;;;179.90;1792.00;;;;;;5056058;28;20390;-71
2020/12/22 00:36:14;;;;;;;42.90;24.17;;;179.90;1792.00;;;;;;5056040;28;20029;-71
2020/12/22 00:38:42;;;;;;;39.15;23.45;;;179.80;1792.00;;;;;;5055689;28;20112;-70
2020/12/22 00:41:12;;;;;;;34.80;21.02;;;179.80;1792.00;;;;;;5055927;28;20041;-71
2020/12/22 00:43:40;;;;;;;34.60;21.45;;;179.80;1792.00;;;;;;5055722;28;20095;-71
2020/12/22 00:46:05;;;;;;;35.28;22.58;;;179.90;1792.00;;;;;;5071102;28;20509;-72
2020/12/22 00:48:31;;;;;;;36.17;21.85;;;179.90;1792.00;;;;;;5055622;28;20112;-70
2020/12/22 00:50:57;;;;;;;31.77;20.30;;;179.80;1792.00;;;;;;5055823;28;20025;-70
2020/12/22 00:53:23;;;;;;;33.47;19.42;;;179.90;1792.00;;;;;;5055424;28;20418;-72
2020/12/22 00:55:48;;;;;;;35.72;20.20;;;179.90;1792.00;;;;;;5070722;28;20044;-70
2020/12/22 00:58:14;;;;;;;32.70;18.80;;;179.90;1792.00;;;;;;5055437;28;20108;-70
2020/12/22 01:00:40;;;;;;;32.05;18.50;;;179.80;1792.00;;;;;;5055428;28;20037;-70
2020/12/22 01:03:06;;;;;;;33.38;19.15;;;179.80;1792.00;;;;;;5055126;28;20029;-70
2020/12/22 01:05:32;;;;;;;34.10;20.38;;;179.80;1792.00;;;;;;5055305;28;20076;-71
2020/12/22 01:07:58;;;;;;;40.80;22.77;;;179.80;1792.00;;;;;;5055446;28;20021;-70
2020/12/22 01:10:24;;;;;;;56.05;28.08;;;179.80;1792.00;;;;;;5055415;28;20104;-70
2020/12/22 01:12:50;;;;;;;55.33;28.73;;;179.80;1792.00;;;;;;5055356;28;20155;-69
2020/12/22 01:15:15;;;;;;;65.63;32.20;;;179.80;1792.00;;;;;;5055079;28;20375;-69
2020/12/22 01:17:41;;;;;;;70.57;31.70;;;179.80;1817.60;;;;;;5053991;28;20036;-69
2020/12/22 01:20:07;;;;;;;59.58;29.60;;;179.90;1792.00;;;;;;5055064;28;20037;-70
2020/12/22 01:22:33;;;;;;;74.35;30.55;;;179.90;1792.00;;;;;;5055182;28;20021;-69
2020/12/22 01:24:58;;;;;;;56.95;24.83;;;180.00;1792.00;;;;;;5055019;28;20090;-69
2020/12/22 01:27:24;;;;;;;47.78;23.40;;;180.00;1792.00;;;;;;5055173;28;20385;-70
2020/12/22 01:29:50;;;;;;;51.47;24.45;;;179.90;1792.00;;;;;;5055156;28;20366;-70
2020/12/22 01:32:15;;;;;;;42.08;22.40;;;179.90;1792.00;;;;;;5055244;28;20036;-69
2020/12/22 01:34:41;;;;;;;42.35;22.15;;;180.00;1792.00;;;;;;5054911;28;20035;-69
2020/12/22 01:37:15;;;;;;;35.72;19.88;;;179.90;1792.00;;;;;;5055062;28;20029;-69
2020/12/22 01:39:41;;;;;;;37.42;19.30;;;179.90;1792.00;;;;;;5055326;28;20039;-70
2020/12/22 01:42:09;;;;;;;33.53;19.90;;;179.90;1792.00;;;;;;5054820;28;20021;-69
2020/12/22 01:44:34;;;;;;;31.67;18.05;;;179.90;1792.00;;;;;;5054822;28;20094;-70
2020/12/22 01:47:00;;;;;;;33.88;17.85;;;179.90;1792.00;;;;;;5054392;28;20549;-71
2020/12/22 01:49:27;;;;;;;24.67;15.45;;;179.90;1792.00;;;;;;5054577;28;20078;-68
2020/12/22 01:51:55;;;;;;;27.23;16.42;;;179.90;1792.00;;;;;;5054920;28;20021;-69
2020/12/22 01:54:21;;;;;;;24.90;14.55;;;179.90;1792.00;;;;;;5054481;28;20025;-69
2020/12/22 01:56:47;;;;;;;22.63;13.93;;;179.90;1792.00;;;;;;5054157;28;20493;-69
2020/12/22 01:59:14;;;;;;;24.38;14.48;;;179.80;1792.00;;;;;;5054292;28;20033;-70
2020/12/22 02:01:40;;;;;;;24.38;13.88;;;179.80;1792.00;;;;;;5054177;28;20119;-68
2020/12/22 02:04:10;;;;;;;23.52;14.93;;;179.80;1792.00;;;;;;5054325;28;20068;-68
2020/12/22 02:06:37;;;;;;;26.90;15.20;;;179.70;1792.00;;;;;;5054472;28;20021;-70
2020/12/22 02:09:08;;;;;;;24.55;16.10;;;179.70;1792.00;;;;;;5069339;28;20040;-70
2020/12/22 02:11:36;;;;;;;25.05;14.80;;;179.60;1817.60;;;;;;5054113;28;20029;-70
2020/12/22 02:14:06;;;;;;;24.70;14.75;;;179.60;1817.60;;;;;;5053345;28;20029;-70
2020/12/22 02:16:32;;;;;;;28.80;15.95;;;179.60;1817.60;;;;;;5054205;28;20045;-69
2020/12/22 02:18:58;;;;;;;24.90;15.00;;;179.60;1817.60;;;;;;5053856;28;20465;-70
2020/12/22 02:21:25;;;;;;;22.45;15.00;;;179.60;1817.60;;;;;;5054029;28;20049;-69
2020/12/22 02:23:54;;;;;;;23.13;15.18;;;179.60;1817.60;;;;;;5053928;28;20116;-69
2020/12/22 02:26:21;;;;;;;22.00;13.57;;;179.60;1817.60;;;;;;5054553;28;20375;-68
2020/12/22 02:28:47;;;;;;;22.85;14.13;;;179.60;1817.60;;;;;;5053971;28;20029;-68
2020/12/22 02:31:13;;;;;;;23.80;14.05;;;179.60;1817.60;;;;;;5054021;28;20083;-69
2020/12/22 02:33:39;;;;;;;25.20;15.07;;;179.60;1817.60;;;;;;5054067;28;20482;-68
2020/12/22 02:36:12;;;;;;;20.80;12.75;;;179.70;1792.00;;;;;;5053761;28;20078;-69
2020/12/22 02:38:39;;;;;;;20.58;12.55;;;179.60;1792.00;;;;;;5053733;28;20032;-69
2020/12/22 02:41:05;;;;;;;20.73;13.30;;;179.70;1792.00;;;;;;5053685;28;20491;-69
2020/12/22 02:43:31;;;;;;;21.27;12.88;;;179.70;1792.00;;;;;;5053619;28;20520;-69
2020/12/22 02:45:58;;;;;;;20.80;13.23;;;179.60;1792.00;;;;;;5052712;28;20025;-69
2020/12/22 02:48:24;;;;;;;19.70;11.77;;;179.60;1792.00;;;;;;5053700;28;20025;-69
2020/12/22 02:50:49;;;;;;;19.33;12.73;;;179.50;1792.00;;;;;;5053784;28;20055;-69
2020/12/22 02:53:15;;;;;;;19.25;13.13;;;179.50;1792.00;;;;;;5052091;28;20500;-69
2020/12/22 02:55:41;;;;;;;20.38;12.52;;;179.50;1792.00;;;;;;5053757;28;20033;-69
2020/12/22 02:58:07;;;;;;;20.08;13.27;;;179.40;1792.00;;;;;;5052295;28;20056;-68
2020/12/22 03:00:32;;;;;;;18.98;12.13;;;179.30;1817.60;;;;;;5053711;28;20390;-68
2020/12/22 03:02:58;;;;;;;20.08;11.85;;;179.30;1817.60;;;;;;5053582;28;20053;-69
2020/12/22 03:05:24;;;;;;;18.30;11.02;;;179.20;1817.60;;;;;;5053356;28;20465;-69
2020/12/22 03:07:49;;;;;;;20.15;11.80;;;179.20;1817.60;;;;;;5053434;28;20032;-68
2020/12/22 03:10:17;;;;;;;22.67;12.10;;;179.20;1817.60;;;;;;5053665;28;20041;-68
2020/12/22 03:12:43;;;;;;;20.10;11.55;;;179.30;1817.60;;;;;;5053711;28;20017;-68
2020/12/22 03:15:09;;;;;;;18.85;11.45;;;179.30;1817.60;;;;;;5053426;28;20471;-70
2020/12/22 03:17:36;;;;;;;16.60;11.23;;;179.30;1817.60;;;;;;5053289;28;20021;-69
2020/12/22 03:20:05;;;;;;;20.67;12.27;;;179.30;1817.60;;;;;;5053382;28;20102;-69
2020/12/22 03:22:32;;;;;;;23.08;11.30;;;179.30;1817.60;;;;;;5053460;28;20021;-71
2020/12/22 03:24:58;;;;;;;19.67;11.30;;;179.30;1817.60;;;;;;5055002;28;20021;-69
2020/12/22 03:27:24;;;;;;;20.50;12.00;;;179.30;1817.60;;;;;;5057424;28;20017;-69
2020/12/22 03:29:50;;;;;;;17.20;10.70;;;179.30;1792.00;;;;;;5057418;28;20032;-69
2020/12/22 03:32:15;;;;;;;17.98;11.05;;;179.30;1792.00;;;;;;5057066;28;20032;-69
2020/12/22 03:34:41;;;;;;;17.88;10.43;;;179.30;1792.00;;;;;;5057432;28;20027;-69
2020/12/22 03:37:07;;;;;;;19.73;11.15;;;179.20;1792.00;;;;;;5057310;28;20028;-69
2020/12/22 03:39:33;;;;;;;19.90;10.70;;;179.20;1792.00;;;;;;5056979;28;20041;-69
2020/12/22 03:41:59;;;;;;;20.67;11.23;;;179.20;1792.00;;;;;;5057170;28;20108;-69
2020/12/22 03:44:25;;;;;;;18.85;9.70;;;179.20;1792.00;;;;;;5057024;28;20120;-69
2020/12/22 03:46:50;;;;;;;17.52;10.23;;;179.20;1766.40;;;;;;5057123;28;20035;-69
2020/12/22 03:49:17;;;;;;;16.67;10.10;;;179.20;1792.00;;;;;;5056854;28;20463;-70
2020/12/22 03:51:44;;;;;;;18.48;10.13;;;179.20;1766.40;;;;;;5056914;28;20033;-70
2020/12/22 03:54:12;;;;;;;15.45;9.77;;;154.50;1792.00;;;;;;5071976;28;20463;-70
2020/12/22 03:56:39;;;;;;;19.67;10.38;;;154.50;1792.00;;;;;;5056855;28;20071;-69
2020/12/22 03:59:05;;;;;;;18.13;10.75;;;154.40;1792.00;;;;;;5056621;28;20032;-70
2020/12/22 04:01:31;;;;;;;18.70;9.68;;;154.40;1792.00;;;;;;5056495;28;20032;-70
2020/12/22 04:03:57;;;;;;;19.27;10.00;;;154.40;1792.00;;;;;;5056265;28;20045;-70
2020/12/22 04:06:23;;;;;;;17.42;9.90;;;154.30;1792.00;;;;;;5056652;28;20070;-69
2020/12/22 04:08:52;;;;;;;19.38;10.05;;;154.30;1792.00;;;;;;5056260;28;20395;-69
2020/12/22 04:11:18;;;;;;;18.45;10.80;;;154.30;1792.00;;;;;;5056550;28;20048;-69
2020/12/22 04:13:43;;;;;;;14.23;9.55;;;154.30;1766.40;;;;;;5056300;28;20462;-69
2020/12/22 04:16:09;;;;;;;16.05;9.25;;;154.30;1792.00;;;;;;5056474;28;20025;-70
2020/12/22 04:18:35;;;;;;;16.05;9.73;;;154.20;1792.00;;;;;;5055859;28;20033;-69
2020/12/22 04:21:01;;;;;;;14.80;9.32;;;154.20;1792.00;;;;;;5055946;28;20124;-69
2020/12/22 04:23:27;;;;;;;14.15;9.40;;;154.20;1792.00;;;;;;5056285;28;20100;-70
2020/12/22 04:25:53;;;;;;;18.63;10.65;;;154.20;1792.00;;;;;;5056310;28;20021;-69
2020/12/22 04:28:19;;;;;;;14.77;9.10;;;154.20;1792.00;;;;;;5055910;28;20458;-69
2020/12/22 04:30:45;;;;;;;17.23;10.20;;;154.20;1792.00;;;;;;5056264;28;20032;-69
2020/12/22 04:33:12;;;;;;;16.75;9.65;;;154.20;1766.40;;;;;;5055088;28;20535;-69
2020/12/22 04:35:39;;;;;;;20.42;9.98;;;154.20;1766.40;;;;;;5055330;28;20141;-69
2020/12/22 04:38:05;;;;;;;19.40;10.02;;;154.20;1792.00;;;;;;5055347;28;20021;-69
2020/12/22 04:40:32;;;;;;;15.57;9.60;;;154.10;1792.00;;;;;;5055821;28;20036;-69
2020/12/22 04:42:59;;;;;;;19.23;9.65;;;154.10;1792.00;;;;;;5055947;28;20029;-69
2020/12/22 04:45:28;;;;;;;16.70;9.27;;;154.10;1792.00;;;;;;5055892;28;20029;-69
2020/12/22 04:47:55;;;;;;;17.67;11.02;;;154.10;1792.00;;;;;;5055305;28;20034;-69
2020/12/22 04:50:22;;;;;;;19.90;10.48;;;154.10;1792.00;;;;;;5055264;28;20035;-69
2020/12/22 04:52:48;;;;;;;17.33;9.70;;;154.10;1792.00;;;;;;5055586;28;20017;-69
2020/12/22 04:55:14;;;;;;;17.33;9.73;;;154.10;1792.00;;;;;;5055473;28;20052;-69
2020/12/22 04:57:48;;;;;;;18.98;10.02;;;154.10;1792.00;;;;;;5055360;28;20104;-69
2020/12/22 05:00:15;;;;;;;15.30;9.60;;;154.10;1792.00;;;;;;5055342;28;20040;-69
2020/12/22 05:02:42;;;;;;;17.35;10.20;;;154.20;1792.00;;;;;;5055474;28;20052;-71
2020/12/22 05:05:09;;;;;;;19.35;11.70;;;154.20;1792.00;;;;;;5055109;28;20483;-71
2020/12/22 05:07:35;;;;;;;19.52;10.82;;;154.20;1792.00;;;;;;5054960;28;20024;-69
2020/12/22 05:10:11;;;;;;;14.88;10.48;;;154.30;1792.00;;;;;;5055897;28;20047;-68
2020/12/22 05:12:41;;;;;;;18.58;10.77;;;154.30;1792.00;;;;;;5055099;28;20466;-70
2020/12/22 05:15:08;;;;;;;16.98;10.40;;;154.30;1792.00;;;;;;5054985;28;20044;-69
2020/12/22 05:17:42;;;;;;;18.10;10.27;;;154.30;1792.00;;;;;;5055251;28;20029;-71
2020/12/22 05:20:20;;;;;;;21.15;10.75;;;154.30;1792.00;;;;;;5053571;28;20044;-70
2020/12/22 05:22:47;;;;;;;15.77;10.05;;;154.30;1766.40;;;;;;5045039;28;20032;-70
2020/12/22 05:25:17;;;;;;;18.30;10.70;;;154.30;1766.40;;;;;;5054962;28;20032;-69
2020/12/22 05:27:47;;;;;;;17.27;10.32;;;154.40;1766.40;;;;;;5055090;28;20021;-70
2020/12/22 05:30:16;;;;;;;15.70;9.88;;;154.40;1766.40;;;;;;5054860;28;20569;-70
2020/12/22 05:32:43;;;;;;;17.73;10.07;;;154.40;1766.40;;;;;;5055028;28;20028;-69
2020/12/22 05:35:12;;;;;;;14.85;9.13;;;154.40;1766.40;;;;;;5054655;28;20033;-69
2020/12/22 05:37:41;;;;;;;15.18;9.90;;;154.40;1766.40;;;;;;5054892;28;20075;-69
2020/12/22 05:40:10;;;;;;;15.35;9.35;;;154.40;1766.40;;;;;;5054860;28;20033;-70
2020/12/22 05:42:36;;;;;;;16.10;9.32;;;154.40;1766.40;;;;;;5054802;28;20450;-70
2020/12/22 05:45:05;;;;;;;17.38;9.15;;;154.50;1766.40;;;;;;5054657;28;20025;-69
2020/12/22 05:47:31;;;;;;;18.60;9.98;;;154.40;1766.40;;;;;;5054326;28;20017;-69
2020/12/22 05:49:58;;;;;;;16.60;10.35;;;154.40;1766.40;;;;;;5054750;28;20036;-69
2020/12/22 05:52:28;;;;;;;20.52;11.85;;;154.40;1766.40;;;;;;5054313;28;20025;-69
2020/12/22 05:54:56;;;;;;;19.77;11.52;;;154.50;1766.40;;;;;;5054608;28;20427;-69
2020/12/22 05:57:22;;;;;;;20.65;11.25;;;154.50;1766.40;;;;;;5053174;28;20474;-69
2020/12/22 05:59:49;;;;;;;20.45;11.73;;;154.50;1766.40;;;;;;5054269;28;20033;-73
2020/12/22 06:02:26;;;;;;;26.42;14.10;;;154.50;1766.40;;;;;;5054380;28;20367;-71
2020/12/22 06:05:00;;;;;;;27.42;13.70;;;154.50;1766.40;;;;;;5052680;28;20182;-70
2020/12/22 06:07:26;;;;;;;25.83;14.52;;;154.40;1766.40;;;;;;5053884;28;20029;-70
2020/12/22 06:09:53;;;;;;;25.73;15.32;;;154.50;1766.40;;;;;;5054432;28;20104;-70
2020/12/22 06:12:23;;;;;;;32.10;16.42;;;154.40;1766.40;;;;;;5054247;28;20032;-70
2020/12/22 06:14:51;;;;;;;22.80;13.75;;;154.50;1766.40;;;;;;5052563;28;20086;-71
2020/12/22 06:17:17;;;;;;;24.60;11.88;;;154.40;1740.80;;;;;;5052986;28;20037;-70
2020/12/22 06:19:52;;;;;;;18.15;10.93;;;179.20;1792.00;;;;;;5054035;28;20029;-70
2020/12/22 06:22:18;;;;;;;17.20;10.05;;;179.20;1766.40;;;;;;5053174;28;20021;-69
2020/12/22 06:24:45;;;;;;;16.73;10.10;;;179.20;1740.80;;;;;;5051152;28;20036;-69
2020/12/22 06:27:13;;;;;;;29.67;10.82;;;154.50;1740.80;;;;;;5053841;28;20032;-69
2020/12/22 06:29:44;;;;;;;14.98;9.45;;;179.20;1740.80;;;;;;5052891;28;20474;-69
2020/12/22 06:32:26;;;;;;;21.60;11.73;;;179.20;1740.80;;;;;;5053632;28;20029;-69
2020/12/22 06:34:53;;;;;;;21.85;11.68;;;154.50;1766.40;;;;;;5053666;28;20025;-69
2020/12/22 06:37:42;;;;;;;23.15;12.90;;;154.50;1740.80;;;;;;5035846;28;20036;-69
2020/12/22 06:40:09;;;;;;;19.95;12.93;;;154.50;1740.80;;;;;;5053650;28;20041;-69
2020/12/22 06:42:44;;;;;;;19.63;12.00;;;154.50;1740.80;;;;;;5053901;28;20072;-69
2020/12/22 06:45:30;;;;;;;17.42;10.02;;;154.50;1740.80;;;;;;5053839;28;20032;-69
2020/12/22 06:47:56;;;;;;;19.25;11.23;;;154.50;1740.80;;;;;;5053763;28;20029;-70
2020/12/22 06:50:43;;;;;;;16.85;10.10;;;154.50;1740.80;;;;;;5053783;28;20036;-70
2020/12/22 06:53:28;;;;;;;18.17;10.68;;;154.50;1740.80;;;;;;5053492;28;20094;-70
2020/12/22 06:55:54;;;;;;;19.73;11.45;;;154.50;1715.20;;;;;;5053799;28;20108;-70
2020/12/22 06:58:44;;;;;;;21.02;12.40;;;154.50;1740.80;;;;;;5053707;28;20029;-70
2020/12/22 07:01:25;;;;;;;19.55;12.48;;;154.50;1715.20;;;;;;5057024;28;20029;-70
2020/12/22 07:04:10;;;;;;;18.98;12.60;;;154.50;1740.80;;;;;;5057936;28;20025;-70
2020/12/22 07:06:48;;;;;;;22.42;12.45;;;154.50;1740.80;;;;;;5057745;28;20044;-70
2020/12/22 07:09:23;;;;;;;27.27;15.18;;;154.50;1740.80;;;;;;5057788;28;20431;-70
2020/12/22 07:11:51;;;;;;;30.98;15.73;;;154.50;1740.80;;;;;;5057468;28;20103;-69
2020/12/22 07:14:19;;;;;;;34.58;15.73;;;154.50;1740.80;;;;;;5057761;28;20024;-70
2020/12/22 07:16:53;;;;;;;29.85;16.13;;;154.50;1740.80;;;;;;5056511;28;20091;-69
2020/12/22 07:19:28;;;;;;;32.15;15.35;;;154.50;1740.80;;;;;;5057386;28;20087;-69
2020/12/22 07:21:54;;;;;;;21.75;14.07;;;154.50;1740.80;;;;;;5057465;28;20041;-70
2020/12/22 07:24:21;;;;;;;21.67;13.48;;;154.50;1740.80;;;;;;5057485;28;20017;-70
2020/12/22 07:26:46;;;;;;;21.92;14.23;;;154.50;1740.80;;;;;;5057385;28;20419;-69
2020/12/22 07:29:13;;;;;;;20.63;13.90;;;154.50;1740.80;;;;;;5057402;28;20056;-70
2020/12/22 07:31:39;;;;;;;22.00;13.73;;;154.50;1740.80;;;;;;5057452;28;20025;-70
2020/12/22 07:34:06;;;;;;;24.63;14.77;;;154.50;1740.80;;;;;;5056985;28;20036;-70
2020/12/22 07:36:33;;;;;;;25.15;15.40;;;154.40;1740.80;;;;;;5056701;28;20493;-70
2020/12/22 07:39:22;;;;;;;29.40;16.13;;;154.40;1740.80;;;;;;5054543;28;20067;-69
2020/12/22 07:41:51;;;;;;;27.13;15.20;;;154.40;1740.80;;;;;;5057051;28;20032;-69
2020/12/22 07:44:19;;;;;;;25.98;15.07;;;154.30;1740.80;;;;;;5057230;28;20033;-69
2020/12/22 07:46:48;;;;;;;28.40;15.50;;;154.30;1740.80;;;;;;5056958;28;20074;-69
2020/12/22 07:49:15;;;;;;;29.42;15.18;;;154.40;1766.40;;;;;;5056798;28;20029;-69
2020/12/22 07:51:45;;;;;;;28.98;16.63;;;154.50;1740.80;;;;;;5056711;28;20021;-69
2020/12/22 07:54:12;;;;;;;38.42;18.38;;;179.20;1740.80;;;;;;5056553;28;20478;-69
2020/12/22 07:56:40;;;;;;;43.83;19.17;;;179.30;1740.80;;;;;;5054923;28;20543;-70
2020/12/22 07:59:11;;;;;;;44.15;20.00;;;179.30;1715.20;;;;;;5056563;28;20033;-68
2020/12/22 08:01:39;;;;;;;41.78;19.38;;;179.40;1715.20;;;;;;5055907;28;20037;-69
2020/12/22 08:04:18;;;;;;;38.20;18.23;;;179.50;1715.20;;;;;;5053705;28;20033;-70
2020/12/22 08:06:57;;;;;;;35.03;19.08;;;179.50;1715.20;;;;;;5037013;28;20037;-70
2020/12/22 08:09:27;;;;;;;26.40;16.08;;;179.50;1715.20;;;;;;5055991;28;20032;-68
2020/12/22 08:11:56;;;;;;;38.97;18.33;;;179.60;1715.20;;;;;;5055129;28;20386;-71
2020/12/22 08:14:23;;;;;;;37.45;19.48;;;179.70;1715.20;;;;;;5053053;28;20059;-69
2020/12/22 08:16:52;;;;;;;49.10;24.42;;;179.70;1689.60;;;;;;5061831;28;20031;-69
2020/12/22 08:19:18;;;;;;;58.30;31.27;;;179.80;1715.20;;;;;;5055147;28;20021;-68
2020/12/22 08:21:46;;;;;;;63.72;30.83;;;179.80;1715.20;;;;;;5055099;28;20043;-69
2020/12/22 08:24:13;;;;;;;52.17;27.35;;;179.90;1715.20;;;;;;5054830;28;20036;-69
2020/12/22 08:26:49;;;;;;;44.45;21.38;;;180.00;1715.20;;;;;;5054696;28;20098;-68
2020/12/22 08:29:17;;;;;;;48.05;24.98;;;180.10;1689.60;;;;;;5053909;28;20025;-69
2020/12/22 08:31:44;;;;;;;42.60;26.20;;;204.80;1689.60;;;;;;5054055;28;20071;-71
2020/12/22 08:34:17;;;;;;;32.05;20.83;;;204.80;1689.60;;;;;;5054459;28;20031;-70
2020/12/22 08:36:47;;;;;;;36.72;22.00;;;204.80;1664.00;;;;;;5053523;28;20033;-67
2020/12/22 08:39:22;;;;;;;39.40;23.02;;;204.90;1664.00;;;;;;5054931;28;20056;-71
2020/12/22 08:41:50;;;;;;;38.35;21.38;;;205.00;1689.60;;;;;;5055663;28;20087;-70
2020/12/22 08:44:16;;;;;;;39.95;22.85;;;205.10;1664.00;;;;;;5055213;28;20029;-70
2020/12/22 08:46:43;;;;;;;42.95;22.50;;;205.20;1664.00;;;;;;5055726;28;20534;-72
2020/12/22 08:49:26;;;;;;;37.70;20.27;;;205.30;1664.00;;;;;;5054958;28;20031;-68
2020/12/22 08:51:56;;;;;;;35.88;19.42;;;205.30;1664.00;;;;;;5035586;28;20028;-69
2020/12/22 08:54:29;;;;;;;31.38;16.83;;;205.40;1664.00;;;;;;5048866;28;20056;-69
2020/12/22 08:57:12;;;;;;;29.95;16.17;;;205.40;1664.00;;;;;;5055284;28;20029;-69
2020/12/22 08:59:38;;;;;;;25.85;15.20;;;205.50;1638.40;;;;;;5053125;28;20025;-70
2020/12/22 09:02:04;;;;;;;22.25;13.10;;;205.50;1638.40;;;;;;5053630;28;20151;-68
2020/12/22 09:04:31;;;;;;;26.45;12.82;;;205.60;1638.40;;;;;;5054545;28;20045;-69
2020/12/22 09:06:57;;;;;;;21.02;12.30;;;205.60;1638.40;;;;;;5055352;28;20021;-69
2020/12/22 09:09:27;;;;;;;20.52;12.45;;;205.60;1612.80;;;;;;5053907;28;20036;-70
2020/12/22 09:12:04;;;;;;;20.20;12.63;;;205.70;1612.80;;;;;;5054532;28;20029;-69
2020/12/22 09:14:50;;;;;;;21.83;12.52;;;205.60;1612.80;;;;;;5052843;28;20029;-70
2020/12/22 09:17:29;;;;;;;22.42;12.80;;;205.70;1612.80;;;;;;5054262;28;20037;-70
2020/12/22 09:19:56;;;;;;;24.08;13.40;;;205.70;1612.80;;;;;;5053249;28;20505;-69
2020/12/22 09:22:22;;;;;;;19.35;12.57;;;205.70;1638.40;;;;;;5054807;28;20017;-73
2020/12/22 09:24:52;;;;;;;20.50;13.10;;;205.70;1638.40;;;;;;5054451;28;20431;-70
2020/12/22 09:27:28;;;;;;;30.95;18.40;;;205.70;1612.80;;;;;;5055139;28;20029;-70
2020/12/22 09:29:54;;;;;;;32.15;18.52;;;230.40;1638.40;;;;;;5052442;28;20098;-70
2020/12/22 09:32:20;;;;;;;26.25;16.05;;;230.40;1612.80;;;;;;5053000;28;20471;-70
2020/12/22 09:34:46;;;;;;;29.75;16.70;;;230.50;1612.80;;;;;;5051786;28;20032;-69
2020/12/22 09:37:11;;;;;;;30.23;16.48;;;230.50;1612.80;;;;;;5052196;28;20025;-69
2020/12/22 09:39:38;;;;;;;29.35;15.23;;;230.50;1612.80;;;;;;5054331;28;20075;-69
2020/12/22 09:42:04;;;;;;;25.75;15.15;;;230.50;1612.80;;;;;;5054514;28;20021;-69
2020/12/22 09:44:31;;;;;;;30.83;14.85;;;230.50;1638.40;;;;;;5052166;28;20102;-69
2020/12/22 09:46:57;;;;;;;28.50;15.10;;;230.50;1612.80;;;;;;5054471;28;20021;-69
2020/12/22 09:49:24;;;;;;;24.70;14.65;;;230.50;1638.40;;;;;;5054335;28;20032;-69
2020/12/22 09:51:50;;;;;;;25.20;15.15;;;230.60;1612.80;;;;;;5054562;28;20045;-69
2020/12/22 09:54:16;;;;;;;26.98;14.95;;;230.70;1612.80;;;;;;5054441;28;20028;-69
2020/12/22 09:56:43;;;;;;;24.77;14.30;;;230.70;1638.40;;;;;;5053158;28;20112;-71
2020/12/22 09:59:09;;;;;;;24.90;15.30;;;230.70;1638.40;;;;;;5054410;28;20024;-69
2020/12/22 10:01:34;;;;;;;29.23;15.05;;;230.70;1612.80;;;;;;5054194;28;20390;-71
2020/12/22 10:04:00;;;;;;;26.25;15.23;;;230.80;1612.80;;;;;;5054567;28;20086;-71
2020/12/22 10:06:27;;;;;;;27.27;16.02;;;230.80;1612.80;;;;;;5054441;28;20025;-70
2020/12/22 10:08:54;;;;;;;32.00;15.77;;;230.80;1638.40;;;;;;5054267;28;20052;-69
2020/12/22 10:11:24;;;;;;;29.25;14.98;;;230.80;1612.80;;;;;;5054611;28;20036;-69
2020/12/22 10:13:50;;;;;;;25.80;16.15;;;230.80;1612.80;;;;;;5053870;28;20063;-69
2020/12/22 10:16:18;;;;;;;30.60;16.05;;;230.80;1612.80;;;;;;5054233;28;20036;-70
2020/12/22 10:18:45;;;;;;;30.92;16.70;;;230.80;1612.80;;;;;;5053975;28;20118;-69
2020/12/22 10:21:15;;;;;;;24.60;15.73;;;230.80;1612.80;;;;;;5053893;28;20036;-70
2020/12/22 10:23:42;;;;;;;34.38;16.98;;;230.80;1612.80;;;;;;5054127;28;20017;-70
2020/12/22 10:26:10;;;;;;;29.20;15.95;;;230.80;1612.80;;;;;;5051936;28;20071;-71
2020/12/22 10:28:37;;;;;;;27.13;16.65;;;230.80;1612.80;;;;;;5051111;28;20025;-71
2020/12/22 10:31:04;;;;;;;36.95;19.55;;;230.80;1612.80;;;;;;5052798;28;20018;-72
2020/12/22 10:33:30;;;;;;;33.13;19.23;;;230.80;1612.80;;;;;;5052763;28;20029;-69
2020/12/22 10:35:56;;;;;;;32.15;18.00;;;230.80;1612.80;;;;;;5051839;28;20062;-71
2020/12/22 10:38:22;;;;;;;33.42;17.13;;;230.80;1638.40;;;;;;5053159;28;20435;-70
2020/12/22 10:40:48;;;;;;;26.63;16.13;;;230.80;1638.40;;;;;;5052795;28;20053;-69
2020/12/22 10:43:14;;;;;;;30.77;18.23;;;230.80;1638.40;;;;;;5052545;28;20021;-70
2020/12/22 10:45:40;;;;;;;33.90;20.10;;;230.80;1638.40;;;;;;5052345;28;20121;-68
2020/12/22 10:48:07;;;;;;;48.08;28.13;;;230.80;1638.40;;;;;;5052659;28;20021;-68
2020/12/22 10:50:36;;;;;;;66.80;34.38;;;230.90;1638.40;;;;;;5052276;28;20025;-71
2020/12/22 10:53:06;;;;;;;42.28;25.30;;;230.90;1638.40;;;;;;5052845;28;20359;-69
2020/12/22 10:55:33;;;;;;;32.20;18.50;;;231.00;1638.40;;;;;;5052761;28;20100;-69
2020/12/22 10:57:59;;;;;;;38.63;20.25;;;231.00;1612.80;;;;;;5051335;28;20021;-71
2020/12/22 11:00:25;;;;;;;36.15;21.27;;;231.00;1638.40;;;;;;5050994;28;20406;-68
2020/12/22 11:02:53;;;;;;;36.67;19.85;;;231.10;1638.40;;;;;;5052370;28;20021;-67
2020/12/22 11:08:05;;;;;;;35.00;19.70;;;231.30;1638.40;;;;;;5052870;28;20051;-67
2020/12/22 11:10:31;;;;;;;43.15;26.95;;;256.00;1612.80;;;;;;5052604;28;20049;-67
2020/12/22 11:12:57;;;;;;;32.80;19.77;;;256.10;1612.80;;;;;;5052385;28;20060;-68
2020/12/22 11:15:23;;;;;;;29.13;19.08;;;256.30;1612.80;;;;;;5052220;28;20032;-69
2020/12/22 11:17:49;;;;;;;24.25;16.67;;;256.60;1612.80;;;;;;5052270;28;20033;-67
2020/12/22 11:20:15;;;;;;;27.40;17.83;;;256.70;1587.20;;;;;;5052133;28;20037;-67
2020/12/22 11:22:40;;;;;;;32.92;18.90;;;256.80;1561.60;;;;;;5052503;28;20077;-67
2020/12/22 11:25:06;;;;;;;37.35;18.42;;;281.60;1587.20;;;;;;5052508;28;20112;-67
2020/12/22 11:27:32;;;;;;;29.10;17.23;;;281.70;1561.60;;;;;;5051991;28;20025;-68
2020/12/22 11:29:57;;;;;;;30.35;19.05;;;281.80;1561.60;;;;;;5052332;28;20032;-67
2020/12/22 11:32:23;;;;;;;26.90;18.05;;;281.80;1561.60;;;;;;5051179;28;20021;-68
2020/12/22 11:34:49;;;;;;;32.70;18.48;;;281.90;1561.60;;;;;;5052007;28;20455;-68
2020/12/22 11:37:15;;;;;;;33.67;20.52;;;281.90;1561.60;;;;;;5052386;28;20082;-67
2020/12/22 11:39:40;;;;;;;40.13;21.90;;;282.00;1587.20;;;;;;5052421;28;20035;-67
2020/12/22 11:42:06;;;;;;;33.55;20.27;;;282.00;1561.60;;;;;;5051968;28;20486;-68
2020/12/22 11:44:32;;;;;;;40.20;23.88;;;282.00;1561.60;;;;;;5052246;28;20407;-67
2020/12/22 11:46:58;;;;;;;34.22;20.75;;;282.00;1561.60;;;;;;5055330;28;20036;-68
2020/12/22 11:49:25;;;;;;;29.73;19.65;;;282.00;1587.20;;;;;;5055658;28;20025;-67
2020/12/22 11:51:57;;;;;;;35.30;21.10;;;282.00;1561.60;;;;;;5056023;28;20051;-67
2020/12/22 11:54:24;;;;;;;32.20;20.23;;;282.10;1561.60;;;;;;5055997;28;20044;-67
2020/12/22 11:56:51;;;;;;;37.00;22.42;;;282.10;1561.60;;;;;;5055559;28;20025;-67
2020/12/22 11:59:18;;;;;;;38.65;22.30;;;282.10;1587.20;;;;;;5054544;28;20028;-67
2020/12/22 12:01:44;;;;;;;34.05;20.88;;;282.10;1587.20;;;;;;5054693;28;20029;-68
2020/12/22 12:04:10;;;;;;;37.97;20.88;;;282.10;1587.20;;;;;;5055222;28;20086;-67
2020/12/22 12:06:36;;;;;;;32.88;21.17;;;282.10;1587.20;;;;;;5054341;28;20063;-67
2020/12/22 12:09:02;;;;;;;34.42;22.60;;;282.10;1587.20;;;;;;5054679;28;20025;-67